sensor_id;sensor_type;location;lat;lon;timestamp;P1;durP1;ratioP1;P2;durP2;ratioP2
34765;SDS011;20984;43.508;1.504;2023-06-10T00:00:39;8.73;;;2.80;;
34765;SDS011;20984;43.508;1.504;2023-06-10T00:03:06;5.10;;;2.85;;
34765;SDS011;20984;43.508;1.504;2023-06-10T00:05:33;5.55;;;3.00;;
34765;SDS011;20984;43.508;1.504;2023-06-10T00:07:59;6.07;;;2.90;;
34765;SDS011;20984;43.508;1.504;2023-06-10T00:10:32;6.72;;;4.22;;
34765;SDS011;20984;43.508;1.504;2023-06-10T00:12:58;6.15;;;2.97;;
34765;SDS011;20984;43.508;1.504;2023-06-10T00:15:24;6.90;;;3.28;;
34765;SDS011;20984;43.508;1.504;2023-06-10T00:17:50;6.82;;;3.63;;
34765;SDS011;20984;43.508;1.504;2023-06-10T00:20:17;10.90;;;3.88;;
34765;SDS011;20984;43.508;1.504;2023-06-10T00:22:43;10.70;;;3.95;;
34765;SDS011;20984;43.508;1.504;2023-06-10T00:25:10;7.80;;;3.30;;
34765;SDS011;20984;43.508;1.504;2023-06-10T00:27:36;8.55;;;3.60;;
34765;SDS011;20984;43.508;1.504;2023-06-10T00:30:03;9.38;;;3.50;;
34765;SDS011;20984;43.508;1.504;2023-06-10T00:32:32;10.20;;;3.78;;
34765;SDS011;20984;43.508;1.504;2023-06-10T00:34:58;6.65;;;3.35;;
34765;SDS011;20984;43.508;1.504;2023-06-10T00:37:24;7.50;;;3.60;;
34765;SDS011;20984;43.508;1.504;2023-06-10T00:39:50;6.47;;;3.40;;
34765;SDS011;20984;43.508;1.504;2023-06-10T00:42:16;10.52;;;4.07;;
34765;SDS011;20984;43.508;1.504;2023-06-10T00:44:41;9.95;;;3.90;;
34765;SDS011;20984;43.508;1.504;2023-06-10T00:47:07;9.55;;;3.97;;
34765;SDS011;20984;43.508;1.504;2023-06-10T00:49:33;8.60;;;3.45;;
34765;SDS011;20984;43.508;1.504;2023-06-10T00:51:59;9.40;;;4.15;;
34765;SDS011;20984;43.508;1.504;2023-06-10T00:54:27;8.45;;;5.03;;
34765;SDS011;20984;43.508;1.504;2023-06-10T00:56:53;11.27;;;3.92;;
34765;SDS011;20984;43.508;1.504;2023-06-10T00:59:20;7.40;;;3.50;;
34765;SDS011;20984;43.508;1.504;2023-06-10T01:01:45;8.38;;;3.35;;
34765;SDS011;20984;43.508;1.504;2023-06-10T01:04:14;11.27;;;4.13;;
34765;SDS011;20984;43.508;1.504;2023-06-10T01:06:51;5.83;;;3.63;;
34765;SDS011;20984;43.508;1.504;2023-06-10T01:10:13;9.32;;;3.50;;
34765;SDS011;20984;43.508;1.504;2023-06-10T01:15:06;8.55;;;2.85;;
34765;SDS011;20984;43.508;1.504;2023-06-10T01:17:36;6.05;;;3.00;;
34765;SDS011;20984;43.508;1.504;2023-06-10T01:20:18;6.35;;;3.13;;
34765;SDS011;20984;43.508;1.504;2023-06-10T01:22:44;6.13;;;2.95;;
34765;SDS011;20984;43.508;1.504;2023-06-10T01:25:10;8.73;;;2.95;;
34765;SDS011;20984;43.508;1.504;2023-06-10T01:27:37;7.82;;;3.25;;
34765;SDS011;20984;43.508;1.504;2023-06-10T01:30:06;8.07;;;2.72;;
34765;SDS011;20984;43.508;1.504;2023-06-10T01:32:40;5.28;;;2.88;;
34765;SDS011;20984;43.508;1.504;2023-06-10T01:35:10;8.15;;;3.20;;
34765;SDS011;20984;43.508;1.504;2023-06-10T01:37:38;6.10;;;3.10;;
34765;SDS011;20984;43.508;1.504;2023-06-10T01:40:05;7.13;;;2.80;;
34765;SDS011;20984;43.508;1.504;2023-06-10T01:42:32;11.55;;;3.30;;
34765;SDS011;20984;43.508;1.504;2023-06-10T01:44:58;6.20;;;3.38;;
34765;SDS011;20984;43.508;1.504;2023-06-10T01:47:24;3.35;;;2.78;;
34765;SDS011;20984;43.508;1.504;2023-06-10T01:49:49;7.75;;;2.88;;
34765;SDS011;20984;43.508;1.504;2023-06-10T01:52:15;6.05;;;3.03;;
34765;SDS011;20984;43.508;1.504;2023-06-10T01:54:41;4.60;;;2.83;;
34765;SDS011;20984;43.508;1.504;2023-06-10T01:57:07;5.78;;;3.00;;
34765;SDS011;20984;43.508;1.504;2023-06-10T01:59:33;5.07;;;2.65;;
34765;SDS011;20984;43.508;1.504;2023-06-10T02:01:58;4.97;;;2.67;;
34765;SDS011;20984;43.508;1.504;2023-06-10T02:04:24;6.35;;;3.10;;
34765;SDS011;20984;43.508;1.504;2023-06-10T02:06:50;6.78;;;3.20;;
34765;SDS011;20984;43.508;1.504;2023-06-10T02:09:16;10.52;;;3.30;;
34765;SDS011;20984;43.508;1.504;2023-06-10T02:11:43;8.65;;;3.25;;
34765;SDS011;20984;43.508;1.504;2023-06-10T02:14:09;5.50;;;3.13;;
34765;SDS011;20984;43.508;1.504;2023-06-10T02:16:35;11.77;;;3.00;;
34765;SDS011;20984;43.508;1.504;2023-06-10T02:19:00;4.90;;;3.25;;
34765;SDS011;20984;43.508;1.504;2023-06-10T02:21:28;5.72;;;3.20;;
34765;SDS011;20984;43.508;1.504;2023-06-10T02:23:53;5.97;;;3.28;;
34765;SDS011;20984;43.508;1.504;2023-06-10T02:26:19;8.30;;;3.60;;
34765;SDS011;20984;43.508;1.504;2023-06-10T02:28:45;8.50;;;3.38;;
34765;SDS011;20984;43.508;1.504;2023-06-10T02:31:11;6.07;;;3.30;;
34765;SDS011;20984;43.508;1.504;2023-06-10T02:33:36;6.80;;;3.05;;
34765;SDS011;20984;43.508;1.504;2023-06-10T02:36:05;5.35;;;3.60;;
34765;SDS011;20984;43.508;1.504;2023-06-10T02:38:31;9.07;;;3.35;;
34765;SDS011;20984;43.508;1.504;2023-06-10T02:40:56;4.65;;;3.50;;
34765;SDS011;20984;43.508;1.504;2023-06-10T02:43:22;14.18;;;3.85;;
34765;SDS011;20984;43.508;1.504;2023-06-10T02:45:48;10.77;;;3.40;;
34765;SDS011;20984;43.508;1.504;2023-06-10T02:48:13;8.10;;;3.10;;
34765;SDS011;20984;43.508;1.504;2023-06-10T02:50:39;9.63;;;3.45;;
34765;SDS011;20984;43.508;1.504;2023-06-10T02:53:05;10.85;;;3.40;;
34765;SDS011;20984;43.508;1.504;2023-06-10T02:55:31;11.05;;;3.55;;
34765;SDS011;20984;43.508;1.504;2023-06-10T02:57:57;6.05;;;3.30;;
34765;SDS011;20984;43.508;1.504;2023-06-10T03:00:24;6.15;;;3.45;;
34765;SDS011;20984;43.508;1.504;2023-06-10T03:02:50;7.63;;;3.67;;
34765;SDS011;20984;43.508;1.504;2023-06-10T03:05:15;7.60;;;3.17;;
34765;SDS011;20984;43.508;1.504;2023-06-10T03:07:42;11.07;;;4.25;;
34765;SDS011;20984;43.508;1.504;2023-06-10T03:10:07;8.30;;;4.55;;
34765;SDS011;20984;43.508;1.504;2023-06-10T03:12:33;8.10;;;3.78;;
34765;SDS011;20984;43.508;1.504;2023-06-10T03:14:59;8.70;;;3.92;;
34765;SDS011;20984;43.508;1.504;2023-06-10T03:17:25;7.53;;;4.85;;
34765;SDS011;20984;43.508;1.504;2023-06-10T03:19:50;13.85;;;4.60;;
34765;SDS011;20984;43.508;1.504;2023-06-10T03:22:16;15.10;;;3.97;;
34765;SDS011;20984;43.508;1.504;2023-06-10T03:24:42;14.55;;;3.95;;
34765;SDS011;20984;43.508;1.504;2023-06-10T03:27:11;10.50;;;3.33;;
34765;SDS011;20984;43.508;1.504;2023-06-10T03:29:38;6.95;;;3.40;;
34765;SDS011;20984;43.508;1.504;2023-06-10T03:32:04;8.55;;;3.35;;
34765;SDS011;20984;43.508;1.504;2023-06-10T03:34:30;6.60;;;3.65;;
34765;SDS011;20984;43.508;1.504;2023-06-10T03:36:56;9.10;;;3.35;;
34765;SDS011;20984;43.508;1.504;2023-06-10T03:39:22;6.78;;;3.58;;
34765;SDS011;20984;43.508;1.504;2023-06-10T03:41:51;7.78;;;3.33;;
34765;SDS011;20984;43.508;1.504;2023-06-10T03:44:16;8.00;;;3.55;;
34765;SDS011;20984;43.508;1.504;2023-06-10T03:46:42;7.63;;;3.25;;
34765;SDS011;20984;43.508;1.504;2023-06-10T03:49:07;7.32;;;3.72;;
34765;SDS011;20984;43.508;1.504;2023-06-10T03:51:34;6.97;;;3.80;;
34765;SDS011;20984;43.508;1.504;2023-06-10T03:54:00;9.48;;;3.53;;
34765;SDS011;20984;43.508;1.504;2023-06-10T03:56:26;9.18;;;3.67;;
34765;SDS011;20984;43.508;1.504;2023-06-10T03:58:53;10.80;;;4.03;;
34765;SDS011;20984;43.508;1.504;2023-06-10T04:01:19;9.63;;;4.55;;
34765;SDS011;20984;43.508;1.504;2023-06-10T04:03:46;8.10;;;3.78;;
34765;SDS011;20984;43.508;1.504;2023-06-10T04:06:16;8.20;;;3.83;;
34765;SDS011;20984;43.508;1.504;2023-06-10T04:08:42;13.48;;;5.05;;
34765;SDS011;20984;43.508;1.504;2023-06-10T04:11:08;15.70;;;4.55;;
34765;SDS011;20984;43.508;1.504;2023-06-10T04:13:34;6.80;;;3.80;;
34765;SDS011;20984;43.508;1.504;2023-06-10T04:16:00;10.50;;;4.75;;
34765;SDS011;20984;43.508;1.504;2023-06-10T04:18:25;11.50;;;5.30;;
34765;SDS011;20984;43.508;1.504;2023-06-10T04:20:51;13.10;;;5.38;;
34765;SDS011;20984;43.508;1.504;2023-06-10T04:23:17;9.88;;;4.28;;
34765;SDS011;20984;43.508;1.504;2023-06-10T04:25:43;11.23;;;4.50;;
34765;SDS011;20984;43.508;1.504;2023-06-10T04:28:08;9.00;;;4.65;;
34765;SDS011;20984;43.508;1.504;2023-06-10T04:30:34;11.73;;;4.13;;
34765;SDS011;20984;43.508;1.504;2023-06-10T04:33:00;9.45;;;4.60;;
34765;SDS011;20984;43.508;1.504;2023-06-10T04:35:25;12.60;;;4.55;;
34765;SDS011;20984;43.508;1.504;2023-06-10T04:37:54;11.35;;;4.15;;
34765;SDS011;20984;43.508;1.504;2023-06-10T04:40:19;7.65;;;4.38;;
34765;SDS011;20984;43.508;1.504;2023-06-10T04:42:45;11.63;;;4.65;;
34765;SDS011;20984;43.508;1.504;2023-06-10T04:45:11;9.27;;;4.70;;
34765;SDS011;20984;43.508;1.504;2023-06-10T04:47:36;9.02;;;4.50;;
34765;SDS011;20984;43.508;1.504;2023-06-10T04:50:02;11.15;;;5.03;;
34765;SDS011;20984;43.508;1.504;2023-06-10T04:52:29;12.45;;;5.38;;
34765;SDS011;20984;43.508;1.504;2023-06-10T04:54:54;7.38;;;4.60;;
34765;SDS011;20984;43.508;1.504;2023-06-10T04:57:21;10.00;;;4.68;;
34765;SDS011;20984;43.508;1.504;2023-06-10T04:59:47;13.75;;;5.25;;
34765;SDS011;20984;43.508;1.504;2023-06-10T05:02:12;14.80;;;5.70;;
34765;SDS011;20984;43.508;1.504;2023-06-10T05:04:38;17.83;;;5.75;;
34765;SDS011;20984;43.508;1.504;2023-06-10T05:07:04;11.88;;;5.40;;
34765;SDS011;20984;43.508;1.504;2023-06-10T05:09:30;15.50;;;5.35;;
34765;SDS011;20984;43.508;1.504;2023-06-10T05:11:55;11.93;;;5.85;;
34765;SDS011;20984;43.508;1.504;2023-06-10T05:14:21;17.13;;;6.18;;
34765;SDS011;20984;43.508;1.504;2023-06-10T05:16:47;11.68;;;5.75;;
34765;SDS011;20984;43.508;1.504;2023-06-10T05:19:13;16.88;;;6.72;;
34765;SDS011;20984;43.508;1.504;2023-06-10T05:21:41;12.77;;;5.72;;
34765;SDS011;20984;43.508;1.504;2023-06-10T05:24:07;13.30;;;6.45;;
34765;SDS011;20984;43.508;1.504;2023-06-10T05:26:32;15.65;;;5.97;;
34765;SDS011;20984;43.508;1.504;2023-06-10T05:29:02;12.20;;;5.63;;
34765;SDS011;20984;43.508;1.504;2023-06-10T05:31:28;11.00;;;5.05;;
34765;SDS011;20984;43.508;1.504;2023-06-10T05:33:53;8.63;;;4.95;;
34765;SDS011;20984;43.508;1.504;2023-06-10T05:36:19;14.55;;;5.40;;
34765;SDS011;20984;43.508;1.504;2023-06-10T05:38:45;9.23;;;4.72;;
34765;SDS011;20984;43.508;1.504;2023-06-10T05:41:11;9.68;;;5.38;;
34765;SDS011;20984;43.508;1.504;2023-06-10T05:43:37;9.70;;;5.03;;
34765;SDS011;20984;43.508;1.504;2023-06-10T05:46:03;11.48;;;5.30;;
34765;SDS011;20984;43.508;1.504;2023-06-10T05:48:29;11.00;;;4.93;;
34765;SDS011;20984;43.508;1.504;2023-06-10T05:50:54;16.63;;;5.68;;
34765;SDS011;20984;43.508;1.504;2023-06-10T05:53:20;11.52;;;5.40;;
34765;SDS011;20984;43.508;1.504;2023-06-10T05:55:45;11.60;;;5.25;;
34765;SDS011;20984;43.508;1.504;2023-06-10T05:58:11;13.98;;;5.63;;
34765;SDS011;20984;43.508;1.504;2023-06-10T06:00:38;11.02;;;4.80;;
34765;SDS011;20984;43.508;1.504;2023-06-10T06:03:08;14.43;;;6.47;;
34765;SDS011;20984;43.508;1.504;2023-06-10T06:05:36;13.25;;;5.70;;
34765;SDS011;20984;43.508;1.504;2023-06-10T06:08:06;11.40;;;5.68;;
34765;SDS011;20984;43.508;1.504;2023-06-10T06:10:32;13.68;;;5.30;;
34765;SDS011;20984;43.508;1.504;2023-06-10T06:12:58;10.30;;;4.90;;
34765;SDS011;20984;43.508;1.504;2023-06-10T06:15:25;12.27;;;4.78;;
34765;SDS011;20984;43.508;1.504;2023-06-10T06:17:50;9.95;;;5.50;;
34765;SDS011;20984;43.508;1.504;2023-06-10T06:20:18;13.25;;;5.45;;
34765;SDS011;20984;43.508;1.504;2023-06-10T06:22:47;9.10;;;4.65;;
34765;SDS011;20984;43.508;1.504;2023-06-10T06:25:12;10.93;;;4.70;;
34765;SDS011;20984;43.508;1.504;2023-06-10T06:27:38;11.48;;;5.20;;
34765;SDS011;20984;43.508;1.504;2023-06-10T06:30:04;10.70;;;6.45;;
34765;SDS011;20984;43.508;1.504;2023-06-10T06:32:31;10.30;;;4.43;;
34765;SDS011;20984;43.508;1.504;2023-06-10T06:34:56;8.65;;;4.50;;
34765;SDS011;20984;43.508;1.504;2023-06-10T06:37:23;9.18;;;4.63;;
34765;SDS011;20984;43.508;1.504;2023-06-10T06:39:52;7.13;;;4.30;;
34765;SDS011;20984;43.508;1.504;2023-06-10T06:42:18;7.35;;;3.80;;
34765;SDS011;20984;43.508;1.504;2023-06-10T06:44:45;5.93;;;3.40;;
34765;SDS011;20984;43.508;1.504;2023-06-10T06:47:12;11.38;;;4.07;;
34765;SDS011;20984;43.508;1.504;2023-06-10T06:49:38;9.75;;;3.15;;
34765;SDS011;20984;43.508;1.504;2023-06-10T06:52:04;5.65;;;3.55;;
34765;SDS011;20984;43.508;1.504;2023-06-10T06:54:30;17.30;;;3.92;;
34765;SDS011;20984;43.508;1.504;2023-06-10T06:56:56;13.23;;;3.72;;
34765;SDS011;20984;43.508;1.504;2023-06-10T06:59:22;6.10;;;3.40;;
34765;SDS011;20984;43.508;1.504;2023-06-10T07:01:47;7.80;;;2.90;;
34765;SDS011;20984;43.508;1.504;2023-06-10T07:04:14;6.43;;;3.17;;
34765;SDS011;20984;43.508;1.504;2023-06-10T07:06:41;7.45;;;3.28;;
34765;SDS011;20984;43.508;1.504;2023-06-10T07:09:09;4.78;;;2.83;;
34765;SDS011;20984;43.508;1.504;2023-06-10T07:11:35;5.85;;;3.20;;
34765;SDS011;20984;43.508;1.504;2023-06-10T07:14:01;11.48;;;3.22;;
34765;SDS011;20984;43.508;1.504;2023-06-10T07:16:26;4.15;;;3.10;;
34765;SDS011;20984;43.508;1.504;2023-06-10T07:18:52;5.45;;;2.78;;
34765;SDS011;20984;43.508;1.504;2023-06-10T07:21:18;9.95;;;2.95;;
34765;SDS011;20984;43.508;1.504;2023-06-10T07:23:44;5.38;;;2.47;;
34765;SDS011;20984;43.508;1.504;2023-06-10T07:26:11;9.02;;;2.67;;
34765;SDS011;20984;43.508;1.504;2023-06-10T07:28:39;7.35;;;2.78;;
34765;SDS011;20984;43.508;1.504;2023-06-10T07:31:05;9.93;;;3.22;;
34765;SDS011;20984;43.508;1.504;2023-06-10T07:33:31;4.05;;;3.10;;
34765;SDS011;20984;43.508;1.504;2023-06-10T07:35:57;2.95;;;2.25;;
34765;SDS011;20984;43.508;1.504;2023-06-10T07:38:24;5.75;;;2.75;;
34765;SDS011;20984;43.508;1.504;2023-06-10T07:40:50;5.10;;;2.42;;
34765;SDS011;20984;43.508;1.504;2023-06-10T07:43:16;10.55;;;3.97;;
34765;SDS011;20984;43.508;1.504;2023-06-10T07:45:42;8.93;;;2.72;;
34765;SDS011;20984;43.508;1.504;2023-06-10T07:48:08;4.38;;;2.33;;
34765;SDS011;20984;43.508;1.504;2023-06-10T07:50:34;3.83;;;2.00;;
34765;SDS011;20984;43.508;1.504;2023-06-10T07:53:00;6.30;;;2.38;;
34765;SDS011;20984;43.508;1.504;2023-06-10T07:55:26;5.32;;;2.38;;
34765;SDS011;20984;43.508;1.504;2023-06-10T07:57:52;7.68;;;2.10;;
34765;SDS011;20984;43.508;1.504;2023-06-10T08:00:19;6.20;;;2.00;;
34765;SDS011;20984;43.508;1.504;2023-06-10T08:02:45;5.32;;;1.92;;
34765;SDS011;20984;43.508;1.504;2023-06-10T08:05:11;8.68;;;2.13;;
34765;SDS011;20984;43.508;1.504;2023-06-10T08:07:36;5.05;;;2.08;;
34765;SDS011;20984;43.508;1.504;2023-06-10T08:10:02;5.30;;;1.92;;
34765;SDS011;20984;43.508;1.504;2023-06-10T08:12:32;5.63;;;2.17;;
34765;SDS011;20984;43.508;1.504;2023-06-10T08:14:58;3.17;;;1.52;;
34765;SDS011;20984;43.508;1.504;2023-06-10T08:17:24;2.38;;;1.48;;
34765;SDS011;20984;43.508;1.504;2023-06-10T08:19:50;2.88;;;1.30;;
34765;SDS011;20984;43.508;1.504;2023-06-10T08:22:15;3.85;;;2.00;;
34765;SDS011;20984;43.508;1.504;2023-06-10T08:24:41;2.95;;;1.40;;
34765;SDS011;20984;43.508;1.504;2023-06-10T08:27:07;6.68;;;1.92;;
34765;SDS011;20984;43.508;1.504;2023-06-10T08:29:32;1.88;;;1.33;;
34765;SDS011;20984;43.508;1.504;2023-06-10T08:31:58;2.63;;;1.70;;
34765;SDS011;20984;43.508;1.504;2023-06-10T08:34:24;1.90;;;1.20;;
34765;SDS011;20984;43.508;1.504;2023-06-10T08:36:50;5.78;;;1.77;;
34765;SDS011;20984;43.508;1.504;2023-06-10T08:39:20;2.92;;;1.98;;
34765;SDS011;20984;43.508;1.504;2023-06-10T08:42:33;4.13;;;1.60;;
34765;SDS011;20984;43.508;1.504;2023-06-10T08:44:41;2.53;;;1.40;;
34765;SDS011;20984;43.508;1.504;2023-06-10T08:47:14;1.80;;;1.45;;
34765;SDS011;20984;43.508;1.504;2023-06-10T08:49:42;1.92;;;1.38;;
34765;SDS011;20984;43.508;1.504;2023-06-10T08:52:11;4.95;;;1.70;;
34765;SDS011;20984;43.508;1.504;2023-06-10T08:54:47;4.45;;;1.60;;
34765;SDS011;20984;43.508;1.504;2023-06-10T08:57:23;3.35;;;1.70;;
34765;SDS011;20984;43.508;1.504;2023-06-10T08:59:50;3.67;;;1.67;;
34765;SDS011;20984;43.508;1.504;2023-06-10T09:02:18;3.85;;;1.52;;
34765;SDS011;20984;43.508;1.504;2023-06-10T09:04:45;4.90;;;1.40;;
34765;SDS011;20984;43.508;1.504;2023-06-10T09:07:13;3.30;;;1.42;;
34765;SDS011;20984;43.508;1.504;2023-06-10T09:09:41;4.93;;;1.60;;
34765;SDS011;20984;43.508;1.504;2023-06-10T09:12:08;3.40;;;1.63;;
34765;SDS011;20984;43.508;1.504;2023-06-10T09:14:34;5.53;;;1.70;;
34765;SDS011;20984;43.508;1.504;2023-06-10T09:17:00;3.60;;;1.52;;
34765;SDS011;20984;43.508;1.504;2023-06-10T09:19:26;1.90;;;1.20;;
34765;SDS011;20984;43.508;1.504;2023-06-10T09:21:53;4.55;;;1.58;;
34765;SDS011;20984;43.508;1.504;2023-06-10T09:24:20;4.20;;;1.52;;
34765;SDS011;20984;43.508;1.504;2023-06-10T09:26:47;3.75;;;1.35;;
34765;SDS011;20984;43.508;1.504;2023-06-10T09:29:13;2.58;;;1.52;;
34765;SDS011;20984;43.508;1.504;2023-06-10T09:31:39;2.38;;;1.40;;
34765;SDS011;20984;43.508;1.504;2023-06-10T09:36:33;3.83;;;1.67;;
34765;SDS011;20984;43.508;1.504;2023-06-10T09:39:00;2.15;;;1.60;;
34765;SDS011;20984;43.508;1.504;2023-06-10T09:41:35;3.50;;;1.40;;
34765;SDS011;20984;43.508;1.504;2023-06-10T09:44:09;3.92;;;1.58;;
34765;SDS011;20984;43.508;1.504;2023-06-10T09:46:38;2.42;;;1.48;;
34765;SDS011;20984;43.508;1.504;2023-06-10T09:49:03;2.83;;;1.52;;
34765;SDS011;20984;43.508;1.504;2023-06-10T09:51:29;2.55;;;1.67;;
34765;SDS011;20984;43.508;1.504;2023-06-10T09:53:55;3.92;;;1.92;;
34765;SDS011;20984;43.508;1.504;2023-06-10T09:56:21;3.70;;;1.27;;
34765;SDS011;20984;43.508;1.504;2023-06-10T09:58:57;5.50;;;1.73;;
34765;SDS011;20984;43.508;1.504;2023-06-10T10:01:22;3.00;;;1.50;;
34765;SDS011;20984;43.508;1.504;2023-06-10T10:03:50;2.80;;;1.40;;
34765;SDS011;20984;43.508;1.504;2023-06-10T10:06:16;4.53;;;1.90;;
34765;SDS011;20984;43.508;1.504;2023-06-10T10:08:45;2.78;;;1.38;;
34765;SDS011;20984;43.508;1.504;2023-06-10T10:11:12;8.00;;;1.63;;
34765;SDS011;20984;43.508;1.504;2023-06-10T10:13:39;4.00;;;1.73;;
34765;SDS011;20984;43.508;1.504;2023-06-10T10:16:12;2.05;;;1.50;;
34765;SDS011;20984;43.508;1.504;2023-06-10T10:19:04;5.70;;;1.70;;
34765;SDS011;20984;43.508;1.504;2023-06-10T10:21:32;5.10;;;1.60;;
34765;SDS011;20984;43.508;1.504;2023-06-10T10:24:05;3.13;;;1.55;;
34765;SDS011;20984;43.508;1.504;2023-06-10T10:26:37;2.65;;;1.40;;
34765;SDS011;20984;43.508;1.504;2023-06-10T10:31:47;2.42;;;1.00;;
34765;SDS011;20984;43.508;1.504;2023-06-10T10:34:16;2.97;;;1.27;;
34765;SDS011;20984;43.508;1.504;2023-06-10T10:36:46;2.05;;;1.40;;
34765;SDS011;20984;43.508;1.504;2023-06-10T10:39:13;4.28;;;1.27;;
34765;SDS011;20984;43.508;1.504;2023-06-10T10:41:39;2.53;;;1.10;;
34765;SDS011;20984;43.508;1.504;2023-06-10T10:44:06;5.20;;;1.63;;
34765;SDS011;20984;43.508;1.504;2023-06-10T10:46:42;3.05;;;1.33;;
34765;SDS011;20984;43.508;1.504;2023-06-10T10:49:09;1.13;;;0.88;;
34765;SDS011;20984;43.508;1.504;2023-06-10T10:51:38;5.05;;;1.27;;
34765;SDS011;20984;43.508;1.504;2023-06-10T10:54:30;4.47;;;1.30;;
34765;SDS011;20984;43.508;1.504;2023-06-10T10:59:58;1.80;;;1.27;;
34765;SDS011;20984;43.508;1.504;2023-06-10T11:05:02;3.88;;;1.00;;
34765;SDS011;20984;43.508;1.504;2023-06-10T11:07:29;1.65;;;1.10;;
34765;SDS011;20984;43.508;1.504;2023-06-10T11:09:59;3.20;;;0.90;;
34765;SDS011;20984;43.508;1.504;2023-06-10T11:12:40;3.35;;;1.27;;
34765;SDS011;20984;43.508;1.504;2023-06-10T11:15:05;1.60;;;1.08;;
34765;SDS011;20984;43.508;1.504;2023-06-10T11:17:31;2.28;;;1.30;;
34765;SDS011;20984;43.508;1.504;2023-06-10T11:19:58;1.80;;;1.17;;
34765;SDS011;20984;43.508;1.504;2023-06-10T11:22:25;2.05;;;1.10;;
34765;SDS011;20984;43.508;1.504;2023-06-10T11:24:50;1.92;;;1.20;;
34765;SDS011;20984;43.508;1.504;2023-06-10T11:32:32;2.15;;;1.15;;
34765;SDS011;20984;43.508;1.504;2023-06-10T11:35:00;3.00;;;1.02;;
34765;SDS011;20984;43.508;1.504;2023-06-10T11:37:28;2.28;;;1.17;;
34765;SDS011;20984;43.508;1.504;2023-06-10T11:39:54;2.08;;;1.20;;
34765;SDS011;20984;43.508;1.504;2023-06-10T11:42:21;1.38;;;0.98;;
34765;SDS011;20984;43.508;1.504;2023-06-10T11:44:53;1.58;;;1.15;;
34765;SDS011;20984;43.508;1.504;2023-06-10T11:47:19;2.42;;;1.15;;
34765;SDS011;20984;43.508;1.504;2023-06-10T11:49:55;2.83;;;1.30;;
34765;SDS011;20984;43.508;1.504;2023-06-10T11:52:28;3.30;;;1.27;;
34765;SDS011;20984;43.508;1.504;2023-06-10T11:54:57;2.15;;;0.88;;
34765;SDS011;20984;43.508;1.504;2023-06-10T11:57:23;3.10;;;1.40;;
34765;SDS011;20984;43.508;1.504;2023-06-10T11:59:48;2.70;;;1.30;;
34765;SDS011;20984;43.508;1.504;2023-06-10T12:02:15;1.75;;;0.82;;
34765;SDS011;20984;43.508;1.504;2023-06-10T12:04:41;1.83;;;1.00;;
34765;SDS011;20984;43.508;1.504;2023-06-10T12:07:07;1.65;;;0.77;;
34765;SDS011;20984;43.508;1.504;2023-06-10T12:09:32;6.57;;;1.08;;
34765;SDS011;20984;43.508;1.504;2023-06-10T12:12:02;1.23;;;0.80;;
34765;SDS011;20984;43.508;1.504;2023-06-10T12:19:57;1.30;;;0.70;;
34765;SDS011;20984;43.508;1.504;2023-06-10T12:22:24;1.75;;;0.98;;
34765;SDS011;20984;43.508;1.504;2023-06-10T12:25:04;2.88;;;1.10;;
34765;SDS011;20984;43.508;1.504;2023-06-10T12:29:58;1.70;;;0.90;;
34765;SDS011;20984;43.508;1.504;2023-06-10T12:33:02;2.97;;;1.08;;
34765;SDS011;20984;43.508;1.504;2023-06-10T12:35:22;5.75;;;1.60;;
34765;SDS011;20984;43.508;1.504;2023-06-10T12:40:26;1.45;;;0.90;;
34765;SDS011;20984;43.508;1.504;2023-06-10T12:42:56;3.78;;;1.00;;
34765;SDS011;20984;43.508;1.504;2023-06-10T12:45:29;1.25;;;0.77;;
34765;SDS011;20984;43.508;1.504;2023-06-10T12:50:38;2.25;;;1.40;;
34765;SDS011;20984;43.508;1.504;2023-06-10T12:53:05;1.35;;;0.88;;
34765;SDS011;20984;43.508;1.504;2023-06-10T12:55:31;2.30;;;1.48;;
34765;SDS011;20984;43.508;1.504;2023-06-10T12:57:57;5.15;;;1.08;;
34765;SDS011;20984;43.508;1.504;2023-06-10T13:00:25;1.33;;;0.93;;
34765;SDS011;20984;43.508;1.504;2023-06-10T13:02:51;2.35;;;1.10;;
34765;SDS011;20984;43.508;1.504;2023-06-10T13:05:18;1.35;;;1.00;;
34765;SDS011;20984;43.508;1.504;2023-06-10T13:07:45;2.53;;;0.80;;
34765;SDS011;20984;43.508;1.504;2023-06-10T13:10:12;1.35;;;1.00;;
34765;SDS011;20984;43.508;1.504;2023-06-10T13:12:38;1.65;;;1.00;;
34765;SDS011;20984;43.508;1.504;2023-06-10T13:15:04;3.17;;;1.05;;
34765;SDS011;20984;43.508;1.504;2023-06-10T13:17:30;1.50;;;0.90;;
34765;SDS011;20984;43.508;1.504;2023-06-10T13:19:56;2.15;;;0.85;;
34765;SDS011;20984;43.508;1.504;2023-06-10T13:22:22;1.50;;;0.98;;
34765;SDS011;20984;43.508;1.504;2023-06-10T13:24:49;1.60;;;0.95;;
34765;SDS011;20984;43.508;1.504;2023-06-10T13:27:14;1.60;;;1.00;;
34765;SDS011;20984;43.508;1.504;2023-06-10T13:29:40;2.00;;;1.08;;
34765;SDS011;20984;43.508;1.504;2023-06-10T13:32:06;3.83;;;0.90;;
34765;SDS011;20984;43.508;1.504;2023-06-10T13:34:32;1.85;;;0.90;;
34765;SDS011;20984;43.508;1.504;2023-06-10T13:36:58;2.05;;;0.82;;
34765;SDS011;20984;43.508;1.504;2023-06-10T13:39:24;1.52;;;0.90;;
34765;SDS011;20984;43.508;1.504;2023-06-10T13:41:49;2.58;;;1.10;;
34765;SDS011;20984;43.508;1.504;2023-06-10T13:44:17;1.85;;;1.10;;
34765;SDS011;20984;43.508;1.504;2023-06-10T13:46:42;3.08;;;1.42;;
34765;SDS011;20984;43.508;1.504;2023-06-10T13:49:08;3.47;;;1.05;;
34765;SDS011;20984;43.508;1.504;2023-06-10T13:51:34;2.50;;;1.55;;
34765;SDS011;20984;43.508;1.504;2023-06-10T13:54:00;1.65;;;0.95;;
34765;SDS011;20984;43.508;1.504;2023-06-10T13:56:25;2.78;;;1.35;;
34765;SDS011;20984;43.508;1.504;2023-06-10T13:58:51;1.50;;;0.88;;
34765;SDS011;20984;43.508;1.504;2023-06-10T14:01:17;1.77;;;0.85;;
34765;SDS011;20984;43.508;1.504;2023-06-10T14:03:43;1.42;;;1.10;;
34765;SDS011;20984;43.508;1.504;2023-06-10T14:06:08;1.77;;;1.10;;
34765;SDS011;20984;43.508;1.504;2023-06-10T14:08:34;1.48;;;0.90;;
34765;SDS011;20984;43.508;1.504;2023-06-10T14:11:00;2.00;;;1.10;;
34765;SDS011;20984;43.508;1.504;2023-06-10T14:13:26;2.65;;;0.90;;
34765;SDS011;20984;43.508;1.504;2023-06-10T14:15:53;1.50;;;1.00;;
34765;SDS011;20984;43.508;1.504;2023-06-10T14:18:18;2.45;;;1.00;;
34765;SDS011;20984;43.508;1.504;2023-06-10T14:20:44;1.48;;;0.90;;
34765;SDS011;20984;43.508;1.504;2023-06-10T14:23:10;1.33;;;0.80;;
34765;SDS011;20984;43.508;1.504;2023-06-10T14:25:35;3.08;;;1.00;;
34765;SDS011;20984;43.508;1.504;2023-06-10T14:28:01;3.42;;;1.15;;
34765;SDS011;20984;43.508;1.504;2023-06-10T14:30:27;5.57;;;0.93;;
34765;SDS011;20984;43.508;1.504;2023-06-10T14:32:53;1.33;;;0.93;;
34765;SDS011;20984;43.508;1.504;2023-06-10T14:35:18;3.88;;;0.90;;
34765;SDS011;20984;43.508;1.504;2023-06-10T14:37:45;2.13;;;1.15;;
34765;SDS011;20984;43.508;1.504;2023-06-10T14:40:11;3.33;;;0.90;;
34765;SDS011;20984;43.508;1.504;2023-06-10T14:42:36;4.97;;;0.82;;
34765;SDS011;20984;43.508;1.504;2023-06-10T14:45:02;1.58;;;0.80;;
34765;SDS011;20984;43.508;1.504;2023-06-10T14:47:29;4.57;;;0.70;;
34765;SDS011;20984;43.508;1.504;2023-06-10T14:49:54;1.58;;;0.77;;
34765;SDS011;20984;43.508;1.504;2023-06-10T14:52:20;2.03;;;0.80;;
34765;SDS011;20984;43.508;1.504;2023-06-10T14:54:46;1.27;;;0.50;;
34765;SDS011;20984;43.508;1.504;2023-06-10T14:57:11;4.13;;;0.65;;
34765;SDS011;20984;43.508;1.504;2023-06-10T14:59:37;1.63;;;0.55;;
34765;SDS011;20984;43.508;1.504;2023-06-10T15:02:03;0.63;;;0.40;;
34765;SDS011;20984;43.508;1.504;2023-06-10T15:04:28;1.52;;;0.60;;
34765;SDS011;20984;43.508;1.504;2023-06-10T15:06:54;2.30;;;0.60;;
34765;SDS011;20984;43.508;1.504;2023-06-10T15:09:20;1.63;;;0.75;;
34765;SDS011;20984;43.508;1.504;2023-06-10T15:11:46;2.20;;;0.50;;
34765;SDS011;20984;43.508;1.504;2023-06-10T15:14:11;0.80;;;0.50;;
34765;SDS011;20984;43.508;1.504;2023-06-10T15:16:37;0.88;;;0.43;;